Time;durP1;ratioP1;P1;durP2;ratioP2;P2;SDS_P1;SDS_P2;PMS_P1;PMS_P2;Temp;Humidity;BMP_temperature;BMP_pressure;BME280_temperature;BME280_humidity;BME280_pressure;Samples;Min_cycle;Max_cycle;Signal;HPM_P1;HPM_P2
2021/11/10 00:00:03;;;;;;;;;;;24.10;26.60;;;;;;494507;240;945;-61
2021/11/10 00:02:04;;;;;;;;;;;24.10;26.50;;;;;;494560;240;1204;-60
2021/11/10 00:04:06;;;;;;;;;;;24.00;26.60;;;;;;494535;240;1052;-60
2021/11/10 00:06:07;;;;;;;;;;;24.00;26.70;;;;;;494490;240;1005;-60
2021/11/10 00:08:08;;;;;;;;;;;24.00;26.60;;;;;;494722;240;2190;-60
2021/11/10 00:10:10;;;;;;;;;;;24.00;26.70;;;;;;494640;240;1089;-60
2021/11/10 00:12:11;;;;;;;;;;;24.00;26.60;;;;;;494619;240;989;-60
2021/11/10 00:14:12;;;;;;;;;;;23.90;26.70;;;;;;494539;240;1074;-61
2021/11/10 00:16:14;;;;;;;;;;;24.00;26.60;;;;;;494708;240;1097;-60
2021/11/10 00:18:15;;;;;;;;;;;24.00;26.60;;;;;;494573;240;1158;-60
2021/11/10 00:20:16;;;;;;;;;;;24.00;26.60;;;;;;494575;240;1229;-60
2021/11/10 00:22:18;;;;;;;;;;;24.10;26.50;;;;;;494433;240;941;-60
2021/11/10 00:24:19;;;;;;;;;;;24.00;26.50;;;;;;494509;240;1346;-60
2021/11/10 00:26:20;;;;;;;;;;;24.00;26.50;;;;;;494673;240;1105;-60
2021/11/10 00:28:22;;;;;;;;;;;24.00;26.50;;;;;;494618;240;2135;-61
2021/11/10 00:30:23;;;;;;;;;;;24.00;26.60;;;;;;494549;240;1033;-60
2021/11/10 00:32:24;;;;;;;;;;;24.00;26.40;;;;;;494466;240;1248;-60
2021/11/10 00:34:26;;;;;;;;;;;24.00;26.50;;;;;;494532;240;973;-60
2021/11/10 00:36:27;;;;;;;;;;;23.90;26.50;;;;;;494714;240;1309;-60
2021/11/10 00:38:28;;;;;;;;;;;24.00;26.50;;;;;;494575;240;967;-60
2021/11/10 00:40:30;;;;;;;;;;;24.00;26.50;;;;;;494658;240;1162;-60
2021/11/10 00:42:31;;;;;;;;;;;24.10;26.40;;;;;;494503;240;1227;-61
2021/11/10 00:44:32;;;;;;;;;;;24.00;26.50;;;;;;494541;240;979;-60
2021/11/10 00:46:34;;;;;;;;;;;24.00;26.50;;;;;;494500;240;2198;-60
2021/11/10 00:48:35;;;;;;;;;;;24.10;26.40;;;;;;494670;240;967;-60
2021/11/10 00:50:36;;;;;;;;;;;23.90;26.40;;;;;;494546;240;1129;-60
2021/11/10 00:52:38;;;;;;;;;;;24.10;26.40;;;;;;494587;240;1454;-60
2021/11/10 00:54:39;;;;;;;;;;;24.00;26.50;;;;;;494525;240;1173;-60
2021/11/10 00:56:40;;;;;;;;;;;24.00;26.50;;;;;;494541;240;1180;-61
2021/11/10 00:58:42;;;;;;;;;;;23.90;26.40;;;;;;494646;240;1047;-60
2021/11/10 01:00:43;;;;;;;;;;;23.90;26.50;;;;;;494640;240;1056;-60
2021/11/10 01:02:44;;;;;;;;;;;24.00;26.40;;;;;;494632;240;1288;-60
2021/11/10 01:04:46;;;;;;;;;;;24.00;26.50;;;;;;494763;240;1009;-60
2021/11/10 01:06:47;;;;;;;;;;;24.00;26.40;;;;;;494552;240;2191;-60
2021/11/10 01:08:48;;;;;;;;;;;24.00;26.40;;;;;;494636;240;1041;-60
2021/11/10 01:10:50;;;;;;;;;;;24.00;26.50;;;;;;494521;240;1189;-60
2021/11/10 01:12:51;;;;;;;;;;;23.90;26.50;;;;;;494480;240;1076;-61
2021/11/10 01:14:52;;;;;;;;;;;23.90;26.50;;;;;;494557;240;1046;-60
2021/11/10 01:16:54;;;;;;;;;;;23.90;26.50;;;;;;494484;240;1171;-60
2021/11/10 01:18:55;;;;;;;;;;;24.00;26.40;;;;;;494611;240;1071;-60
2021/11/10 01:20:56;;;;;;;;;;;24.00;26.40;;;;;;494585;240;1080;-60
2021/11/10 01:22:58;;;;;;;;;;;24.00;26.40;;;;;;494538;240;1152;-60
2021/11/10 01:24:59;;;;;;;;;;;24.00;26.40;;;;;;494640;240;1199;-60
2021/11/10 01:27:00;;;;;;;;;;;24.00;26.40;;;;;;494422;240;2151;-61
2021/11/10 01:29:01;;;;;;;;;;;24.00;26.40;;;;;;494508;240;1101;-61
2021/11/10 01:31:03;;;;;;;;;;;24.00;26.30;;;;;;494481;240;1002;-60
2021/11/10 01:33:04;;;;;;;;;;;24.00;26.40;;;;;;494500;240;1328;-60
2021/11/10 01:35:05;;;;;;;;;;;24.00;26.30;;;;;;494602;240;989;-60
2021/11/10 01:37:07;;;;;;;;;;;24.00;26.30;;;;;;494658;240;1175;-60
2021/11/10 01:39:08;;;;;;;;;;;24.00;26.30;;;;;;494590;240;1207;-60
2021/11/10 01:41:09;;;;;;;;;;;23.90;26.40;;;;;;494617;240;1215;-60
2021/11/10 01:43:14;;;;;;;;;;;23.90;26.50;;;;;;494619;240;1188;-60
2021/11/10 01:45:15;;;;;;;;;;;23.90;26.60;;;;;;494574;240;972;-60
2021/11/10 01:47:16;;;;;;;;;;;23.90;26.50;;;;;;494505;240;2179;-60
2021/11/10 01:49:18;;;;;;;;;;;23.80;26.50;;;;;;494580;240;1061;-61
2021/11/10 01:51:19;;;;;;;;;;;23.90;26.50;;;;;;494485;240;1157;-60
2021/11/10 01:53:20;;;;;;;;;;;23.90;26.50;;;;;;494603;240;1200;-60
2021/11/10 01:55:22;;;;;;;;;;;23.90;26.50;;;;;;494591;240;1148;-60
2021/11/10 01:57:23;;;;;;;;;;;23.90;26.40;;;;;;494499;240;1185;-60
2021/11/10 01:59:24;;;;;;;;;;;23.90;26.40;;;;;;494515;240;1054;-60
2021/11/10 02:01:26;;;;;;;;;;;23.90;26.40;;;;;;494611;240;1149;-60
2021/11/10 02:03:27;;;;;;;;;;;23.90;26.40;;;;;;494613;240;1071;-60
2021/11/10 02:05:28;;;;;;;;;;;23.90;26.40;;;;;;494709;240;1074;-60
2021/11/10 02:07:30;;;;;;;;;;;23.90;26.50;;;;;;494455;240;2182;-60
2021/11/10 02:09:31;;;;;;;;;;;23.90;26.40;;;;;;494568;240;1033;-60
2021/11/10 02:11:32;;;;;;;;;;;23.90;26.40;;;;;;494513;240;1257;-60
2021/11/10 02:13:34;;;;;;;;;;;23.90;26.30;;;;;;494589;240;971;-60
2021/11/10 02:15:35;;;;;;;;;;;23.90;26.40;;;;;;494542;240;1026;-60
2021/11/10 02:17:37;;;;;;;;;;;23.80;26.40;;;;;;494550;240;1064;-60
2021/11/10 02:19:38;;;;;;;;;;;23.90;26.40;;;;;;494613;240;1436;-60
2021/11/10 02:21:41;;;;;;;;;;;23.90;26.40;;;;;;494471;240;975;-60
2021/11/10 02:23:41;;;;;;;;;;;23.90;26.40;;;;;;494373;241;1443;-60
2021/11/10 02:25:42;;;;;;;;;;;23.90;26.30;;;;;;494518;240;1220;-60
2021/11/10 02:27:43;;;;;;;;;;;23.90;26.30;;;;;;494576;240;2211;-60
2021/11/10 02:29:45;;;;;;;;;;;23.90;26.30;;;;;;494621;240;1070;-60
2021/11/10 02:31:46;;;;;;;;;;;23.90;26.30;;;;;;494547;240;1071;-60
2021/11/10 02:33:47;;;;;;;;;;;23.90;26.30;;;;;;494564;240;1069;-60
2021/11/10 02:35:49;;;;;;;;;;;23.90;26.30;;;;;;494664;240;1108;-60
2021/11/10 02:37:50;;;;;;;;;;;23.80;26.40;;;;;;494566;240;1227;-60
2021/11/10 02:39:51;;;;;;;;;;;23.90;26.30;;;;;;494767;240;1104;-60
2021/11/10 02:41:53;;;;;;;;;;;23.80;26.30;;;;;;494548;240;1254;-60
2021/11/10 02:43:54;;;;;;;;;;;23.90;26.30;;;;;;494615;240;1052;-60
2021/11/10 02:45:55;;;;;;;;;;;23.90;26.30;;;;;;494585;240;1144;-60
2021/11/10 02:47:56;;;;;;;;;;;23.80;26.30;;;;;;494591;240;2135;-60
2021/11/10 02:49:58;;;;;;;;;;;23.80;26.30;;;;;;494611;240;1075;-60
2021/11/10 02:51:59;;;;;;;;;;;23.80;26.30;;;;;;494647;240;1184;-60
2021/11/10 02:54:01;;;;;;;;;;;23.90;26.30;;;;;;494737;240;1053;-60
2021/11/10 02:56:02;;;;;;;;;;;23.90;26.20;;;;;;494524;240;1195;-60
2021/11/10 02:58:04;;;;;;;;;;;23.90;26.20;;;;;;494587;240;1110;-60
2021/11/10 03:00:05;;;;;;;;;;;23.90;26.20;;;;;;494642;240;1106;-60
2021/11/10 03:02:06;;;;;;;;;;;23.90;26.30;;;;;;494553;240;1067;-60
2021/11/10 03:04:07;;;;;;;;;;;23.90;26.30;;;;;;494531;240;1075;-61
2021/11/10 03:06:09;;;;;;;;;;;23.90;26.20;;;;;;494656;240;1020;-60
2021/11/10 03:08:10;;;;;;;;;;;23.80;26.20;;;;;;494649;240;2120;-60
2021/11/10 03:10:11;;;;;;;;;;;23.90;26.20;;;;;;494611;240;1044;-60
2021/11/10 03:12:13;;;;;;;;;;;23.90;26.20;;;;;;494590;240;1316;-60
2021/11/10 03:14:14;;;;;;;;;;;23.80;26.20;;;;;;494780;240;1006;-61
2021/11/10 03:16:15;;;;;;;;;;;23.90;26.10;;;;;;494548;240;1042;-60
2021/11/10 03:18:17;;;;;;;;;;;23.90;26.20;;;;;;494602;240;1069;-60
2021/11/10 03:20:18;;;;;;;;;;;23.90;26.10;;;;;;494594;240;1039;-60
2021/11/10 03:22:19;;;;;;;;;;;23.90;26.20;;;;;;494542;240;1229;-60
2021/11/10 03:24:21;;;;;;;;;;;23.90;26.10;;;;;;494574;240;1054;-60
2021/11/10 03:26:22;;;;;;;;;;;23.90;26.20;;;;;;494537;240;1369;-61
2021/11/10 03:28:23;;;;;;;;;;;23.90;26.10;;;;;;494506;240;2178;-61
2021/11/10 03:30:25;;;;;;;;;;;23.90;26.10;;;;;;494504;240;1197;-60
2021/11/10 03:32:26;;;;;;;;;;;23.80;26.10;;;;;;494589;240;1209;-60
2021/11/10 03:34:27;;;;;;;;;;;23.90;26.10;;;;;;494716;240;1101;-60
2021/11/10 03:36:29;;;;;;;;;;;23.90;26.10;;;;;;494486;240;1401;-60
2021/11/10 03:38:30;;;;;;;;;;;23.80;26.10;;;;;;494710;240;1179;-60
2021/11/10 03:40:31;;;;;;;;;;;23.80;26.10;;;;;;494602;240;1106;-60
2021/11/10 03:42:33;;;;;;;;;;;23.80;26.20;;;;;;494478;240;1080;-60
2021/11/10 03:44:34;;;;;;;;;;;23.80;26.10;;;;;;494543;240;962;-60
2021/11/10 03:46:37;;;;;;;;;;;23.80;26.10;;;;;;494577;240;1213;-60
2021/11/10 03:48:37;;;;;;;;;;;23.80;26.10;;;;;;494458;241;2190;-60
2021/11/10 03:50:38;;;;;;;;;;;23.90;26.00;;;;;;494570;240;1199;-60
2021/11/10 03:52:39;;;;;;;;;;;23.90;26.10;;;;;;494504;240;1083;-61
2021/11/10 03:54:41;;;;;;;;;;;23.90;26.00;;;;;;494625;240;1093;-60
2021/11/10 03:56:42;;;;;;;;;;;23.90;26.10;;;;;;494534;240;1161;-60
2021/11/10 03:58:43;;;;;;;;;;;23.80;26.10;;;;;;494703;240;1076;-60
2021/11/10 04:00:45;;;;;;;;;;;23.90;26.00;;;;;;494584;240;1196;-60
2021/11/10 04:02:46;;;;;;;;;;;23.90;26.00;;;;;;494608;240;1112;-60
2021/11/10 04:04:47;;;;;;;;;;;23.90;26.00;;;;;;494601;240;1080;-60
2021/11/10 04:06:49;;;;;;;;;;;23.90;26.00;;;;;;494539;240;1140;-61
2021/11/10 04:08:51;;;;;;;;;;;23.90;26.00;;;;;;494570;240;2194;-60
2021/11/10 04:10:51;;;;;;;;;;;23.90;26.10;;;;;;494568;240;1422;-60
2021/11/10 04:12:53;;;;;;;;;;;23.80;26.10;;;;;;494683;240;1139;-60
2021/11/10 04:14:54;;;;;;;;;;;23.90;26.10;;;;;;494551;240;1031;-60
2021/11/10 04:16:55;;;;;;;;;;;23.80;26.20;;;;;;494548;240;1252;-60
2021/11/10 04:18:57;;;;;;;;;;;23.80;26.10;;;;;;494607;240;1022;-60
2021/11/10 04:20:58;;;;;;;;;;;23.80;26.00;;;;;;494583;240;1310;-60
2021/11/10 04:22:59;;;;;;;;;;;23.90;26.00;;;;;;494586;240;1139;-60
2021/11/10 04:25:01;;;;;;;;;;;23.90;26.00;;;;;;494626;240;1094;-60
2021/11/10 04:27:02;;;;;;;;;;;23.80;26.00;;;;;;494625;240;1176;-60
2021/11/10 04:29:03;;;;;;;;;;;23.90;26.00;;;;;;494615;240;2198;-60
2021/11/10 04:31:05;;;;;;;;;;;23.90;26.00;;;;;;494609;240;1234;-60
2021/11/10 04:33:06;;;;;;;;;;;23.90;26.00;;;;;;494624;240;1048;-60
2021/11/10 04:35:07;;;;;;;;;;;23.90;26.00;;;;;;494779;240;1032;-60
2021/11/10 04:37:10;;;;;;;;;;;23.90;26.00;;;;;;494529;240;1110;-60
2021/11/10 04:39:11;;;;;;;;;;;24.00;26.00;;;;;;494517;241;1413;-60
2021/11/10 04:41:13;;;;;;;;;;;23.90;26.00;;;;;;494567;237;1173;-60
2021/11/10 04:43:13;;;;;;;;;;;23.90;26.00;;;;;;494552;241;1327;-60
2021/11/10 04:45:19;;;;;;;;;;;23.80;26.10;;;;;;494664;240;943;-60
2021/11/10 04:47:16;;;;;;;;;;;23.80;26.10;;;;;;494141;241;1462;-60
2021/11/10 04:49:17;;;;;;;;;;;23.90;26.00;;;;;;494475;240;2178;-60
2021/11/10 04:51:19;;;;;;;;;;;23.90;26.00;;;;;;494579;240;1329;-60
2021/11/10 04:53:20;;;;;;;;;;;23.80;26.00;;;;;;494536;240;1180;-60
2021/11/10 04:55:21;;;;;;;;;;;23.90;26.00;;;;;;494527;240;942;-61
2021/11/10 04:57:23;;;;;;;;;;;23.80;26.10;;;;;;494515;240;1164;-61
2021/11/10 04:59:24;;;;;;;;;;;23.90;26.00;;;;;;494548;240;1140;-60
2021/11/10 05:01:26;;;;;;;;;;;23.80;26.00;;;;;;494561;240;1187;-60
2021/11/10 05:03:27;;;;;;;;;;;23.80;26.00;;;;;;494515;240;1058;-61
2021/11/10 05:05:28;;;;;;;;;;;23.80;26.10;;;;;;494605;240;1026;-60
2021/11/10 05:07:30;;;;;;;;;;;23.80;26.00;;;;;;494436;240;1184;-60
2021/11/10 05:09:31;;;;;;;;;;;23.90;26.00;;;;;;494496;240;2183;-60
2021/11/10 05:11:32;;;;;;;;;;;23.80;26.00;;;;;;494418;240;1192;-61
2021/11/10 05:13:34;;;;;;;;;;;23.90;26.00;;;;;;494538;240;1182;-60
2021/11/10 05:15:35;;;;;;;;;;;23.80;26.00;;;;;;494461;240;1108;-60
2021/11/10 05:17:36;;;;;;;;;;;23.80;26.00;;;;;;494492;240;1066;-60
2021/11/10 05:19:38;;;;;;;;;;;23.90;26.00;;;;;;494626;240;976;-61
2021/11/10 05:21:39;;;;;;;;;;;23.80;26.00;;;;;;494479;240;1354;-61
2021/11/10 05:23:40;;;;;;;;;;;23.90;26.00;;;;;;494630;240;1022;-60
2021/11/10 05:25:42;;;;;;;;;;;23.80;26.00;;;;;;494616;240;1029;-60
2021/11/10 05:27:43;;;;;;;;;;;23.80;26.00;;;;;;494397;240;1002;-60
2021/11/10 05:29:44;;;;;;;;;;;23.90;25.90;;;;;;494376;240;2155;-60
2021/11/10 05:31:45;;;;;;;;;;;23.80;26.00;;;;;;494298;240;1327;-60
2021/11/10 05:33:47;;;;;;;;;;;23.80;26.00;;;;;;494443;240;965;-60
2021/11/10 05:35:48;;;;;;;;;;;23.80;26.00;;;;;;494347;240;1280;-60
2021/11/10 05:37:49;;;;;;;;;;;23.90;26.00;;;;;;494312;240;1182;-60
2021/11/10 05:39:51;;;;;;;;;;;23.90;25.90;;;;;;494372;240;1126;-61
2021/11/10 05:41:52;;;;;;;;;;;23.90;26.00;;;;;;494293;240;1199;-60
2021/11/10 05:43:53;;;;;;;;;;;23.90;25.90;;;;;;494432;240;1176;-61
2021/11/10 05:45:55;;;;;;;;;;;23.90;26.00;;;;;;494262;240;1932;-60
2021/11/10 05:47:56;;;;;;;;;;;23.90;26.00;;;;;;494368;240;1259;-60
2021/11/10 05:49:57;;;;;;;;;;;23.90;26.00;;;;;;494218;240;2174;-60
2021/11/10 05:51:59;;;;;;;;;;;23.90;26.00;;;;;;494136;240;1442;-61
2021/11/10 05:54:00;;;;;;;;;;;23.90;26.00;;;;;;494221;240;1055;-60
2021/11/10 05:56:01;;;;;;;;;;;23.90;25.90;;;;;;494320;240;1219;-60
2021/11/10 05:58:04;;;;;;;;;;;23.80;26.00;;;;;;494349;240;1070;-61
2021/11/10 06:00:04;;;;;;;;;;;23.90;26.00;;;;;;494271;241;1903;-60
2021/11/10 06:02:05;;;;;;;;;;;23.80;26.00;;;;;;494297;240;1183;-60
2021/11/10 06:04:07;;;;;;;;;;;23.90;25.90;;;;;;494380;240;943;-60
2021/11/10 06:06:08;;;;;;;;;;;23.90;26.00;;;;;;494275;240;1343;-60
2021/11/10 06:08:09;;;;;;;;;;;23.90;25.80;;;;;;494268;240;1184;-61
2021/11/10 06:10:10;;;;;;;;;;;23.90;25.90;;;;;;494303;240;2111;-60
2021/11/10 06:12:12;;;;;;;;;;;23.80;25.90;;;;;;494162;240;1318;-61
2021/11/10 06:14:13;;;;;;;;;;;23.90;25.80;;;;;;494201;240;1148;-60
2021/11/10 06:16:14;;;;;;;;;;;24.00;25.90;;;;;;494118;240;1189;-60
2021/11/10 06:18:16;;;;;;;;;;;23.90;25.90;;;;;;494166;240;1061;-60
2021/11/10 06:20:17;;;;;;;;;;;23.90;26.00;;;;;;494157;240;1066;-60
2021/11/10 06:22:18;;;;;;;;;;;23.90;25.90;;;;;;494147;240;1320;-61
2021/11/10 06:24:20;;;;;;;;;;;23.90;25.90;;;;;;494103;240;1043;-60
2021/11/10 06:26:21;;;;;;;;;;;23.90;25.90;;;;;;494243;240;1133;-61
2021/11/10 06:28:23;;;;;;;;;;;23.90;26.00;;;;;;494304;240;1023;-60
2021/11/10 06:30:24;;;;;;;;;;;23.90;25.90;;;;;;494349;240;2194;-60
2021/11/10 06:32:25;;;;;;;;;;;23.90;25.90;;;;;;494085;240;1188;-60
2021/11/10 06:34:29;;;;;;;;;;;23.90;25.90;;;;;;494175;240;1042;-60
2021/11/10 06:36:28;;;;;;;;;;;23.90;25.90;;;;;;493961;241;2421;-60
2021/11/10 06:38:30;;;;;;;;;;;24.00;25.90;;;;;;494025;240;1015;-60
2021/11/10 06:40:31;;;;;;;;;;;23.90;25.90;;;;;;494049;241;1023;-60
2021/11/10 06:42:32;;;;;;;;;;;23.90;25.90;;;;;;494200;240;1176;-60
2021/11/10 06:44:33;;;;;;;;;;;23.90;25.90;;;;;;494194;240;1200;-60
2021/11/10 06:46:35;;;;;;;;;;;23.90;25.90;;;;;;494194;240;1205;-60
2021/11/10 06:48:36;;;;;;;;;;;23.90;25.90;;;;;;494220;240;1050;-60
2021/11/10 06:50:37;;;;;;;;;;;23.80;26.00;;;;;;494132;240;2218;-61
2021/11/10 06:52:39;;;;;;;;;;;23.90;26.00;;;;;;494188;240;1218;-60
2021/11/10 06:54:40;;;;;;;;;;;23.90;25.90;;;;;;494197;240;1200;-60
2021/11/10 06:56:41;;;;;;;;;;;23.90;26.00;;;;;;494106;240;1139;-60
2021/11/10 06:58:42;;;;;;;;;;;23.90;25.90;;;;;;494014;240;1180;-60
2021/11/10 07:00:44;;;;;;;;;;;23.90;26.00;;;;;;494029;240;1229;-60
2021/11/10 07:02:45;;;;;;;;;;;23.90;26.00;;;;;;493869;240;1200;-60
2021/11/10 07:04:46;;;;;;;;;;;23.90;25.90;;;;;;493991;240;1021;-60
2021/11/10 07:06:48;;;;;;;;;;;23.90;25.90;;;;;;494013;240;1207;-60
2021/11/10 07:08:49;;;;;;;;;;;23.90;26.00;;;;;;493995;240;2116;-60
2021/11/10 07:10:50;;;;;;;;;;;23.90;26.00;;;;;;494065;240;1308;-60
2021/11/10 07:12:52;;;;;;;;;;;24.00;25.90;;;;;;494139;240;1040;-60
2021/11/10 07:14:53;;;;;;;;;;;24.00;26.00;;;;;;494266;239;1236;-60
2021/11/10 07:16:54;;;;;;;;;;;24.00;25.90;;;;;;493945;240;1184;-60
2021/11/10 07:18:56;;;;;;;;;;;23.90;25.90;;;;;;493962;240;1014;-60
2021/11/10 07:20:57;;;;;;;;;;;24.00;26.00;;;;;;493956;240;1392;-60
2021/11/10 07:22:59;;;;;;;;;;;23.90;26.00;;;;;;493821;240;998;-60
2021/11/10 07:25:00;;;;;;;;;;;24.00;25.90;;;;;;493923;240;1954;-61
2021/11/10 07:27:01;;;;;;;;;;;24.00;26.00;;;;;;493910;240;1249;-60
2021/11/10 07:29:02;;;;;;;;;;;24.00;26.00;;;;;;493899;240;2175;-61
2021/11/10 07:31:04;;;;;;;;;;;23.90;26.00;;;;;;493880;240;1206;-59
2021/11/10 07:33:05;;;;;;;;;;;24.00;26.00;;;;;;493929;240;1092;-60
2021/11/10 07:35:06;;;;;;;;;;;24.00;25.90;;;;;;493924;240;1090;-60
2021/11/10 07:37:08;;;;;;;;;;;24.00;26.00;;;;;;493990;240;1199;-60
2021/11/10 07:39:10;;;;;;;;;;;24.10;25.90;;;;;;493992;240;1028;-60
2021/11/10 07:41:13;;;;;;;;;;;24.10;26.00;;;;;;493824;241;2340;-60
2021/11/10 07:43:13;;;;;;;;;;;24.00;26.00;;;;;;493782;241;1834;-60
2021/11/10 07:45:18;;;;;;;;;;;24.00;26.00;;;;;;493776;240;1162;-60
2021/11/10 07:47:17;;;;;;;;;;;24.00;26.10;;;;;;493277;241;1215;-60
2021/11/10 07:49:17;;;;;;;;;;;24.00;26.10;;;;;;493578;241;2159;-60
2021/11/10 07:51:19;;;;;;;;;;;24.00;26.10;;;;;;493753;240;1034;-60
2021/11/10 07:53:20;;;;;;;;;;;24.00;26.10;;;;;;493779;240;1059;-60
2021/11/10 07:55:22;;;;;;;;;;;24.10;26.10;;;;;;493808;240;1116;-60
2021/11/10 07:57:23;;;;;;;;;;;24.10;26.20;;;;;;493623;240;1023;-60
2021/11/10 07:59:24;;;;;;;;;;;24.10;26.20;;;;;;493594;240;1068;-60
2021/11/10 08:01:26;;;;;;;;;;;24.00;26.20;;;;;;493651;240;1186;-60
2021/11/10 08:03:27;;;;;;;;;;;24.00;26.20;;;;;;493715;240;1040;-60
2021/11/10 08:05:28;;;;;;;;;;;24.10;26.20;;;;;;493624;240;1061;-61
2021/11/10 08:07:30;;;;;;;;;;;24.00;26.30;;;;;;493499;240;1044;-60
2021/11/10 08:09:31;;;;;;;;;;;24.10;26.20;;;;;;493462;240;2171;-60
2021/11/10 08:11:32;;;;;;;;;;;24.00;26.40;;;;;;493504;240;1131;-60
2021/11/10 08:13:34;;;;;;;;;;;24.10;26.30;;;;;;493665;240;1208;-60
2021/11/10 08:15:36;;;;;;;;;;;24.10;26.40;;;;;;493610;240;1204;-60
2021/11/10 08:17:36;;;;;;;;;;;24.00;26.40;;;;;;493532;240;1417;-60
2021/11/10 08:19:38;;;;;;;;;;;24.10;26.50;;;;;;493506;240;1069;-60
2021/11/10 08:21:40;;;;;;;;;;;24.10;26.50;;;;;;493484;240;1364;-60
2021/11/10 08:23:40;;;;;;;;;;;24.10;26.50;;;;;;493681;240;1407;-60
2021/11/10 08:25:42;;;;;;;;;;;24.10;26.50;;;;;;493615;240;1128;-60
2021/11/10 08:27:43;;;;;;;;;;;24.00;26.50;;;;;;493653;240;1510;-60
2021/11/10 08:29:45;;;;;;;;;;;24.20;26.50;;;;;;493591;240;2139;-60
2021/11/10 08:31:46;;;;;;;;;;;24.20;26.60;;;;;;493472;240;1326;-60
2021/11/10 08:33:47;;;;;;;;;;;24.10;26.70;;;;;;493670;240;1031;-60
2021/11/10 08:35:49;;;;;;;;;;;24.10;26.70;;;;;;493611;240;1444;-61
2021/11/10 08:37:50;;;;;;;;;;;24.10;26.60;;;;;;493465;240;1206;-61
2021/11/10 08:39:51;;;;;;;;;;;24.20;26.70;;;;;;493600;240;953;-60
2021/11/10 08:41:53;;;;;;;;;;;24.10;26.70;;;;;;493625;240;1167;-60
2021/11/10 08:43:54;;;;;;;;;;;24.10;26.60;;;;;;494372;240;899;-60
2021/11/10 08:45:55;;;;;;;;;;;24.20;26.70;;;;;;494205;237;1294;-60
2021/11/10 08:47:57;;;;;;;;;;;24.10;26.70;;;;;;493810;240;1048;-60
2021/11/10 08:49:59;;;;;;;;;;;24.20;26.60;;;;;;493598;240;2250;-60
2021/11/10 08:52:00;;;;;;;;;;;24.00;26.80;;;;;;493671;240;1097;-60
2021/11/10 08:54:01;;;;;;;;;;;23.80;27.10;;;;;;493605;240;1079;-61
2021/11/10 08:56:03;;;;;;;;;;;23.70;27.20;;;;;;493562;240;1444;-60
2021/11/10 08:58:04;;;;;;;;;;;23.60;27.30;;;;;;493706;240;1726;-60
2021/11/10 09:00:05;;;;;;;;;;;23.50;27.40;;;;;;493546;240;1353;-60
2021/11/10 09:02:06;;;;;;;;;;;23.40;27.50;;;;;;493313;240;1194;-60
2021/11/10 09:04:08;;;;;;;;;;;23.40;27.60;;;;;;493453;240;1061;-60
2021/11/10 09:06:11;;;;;;;;;;;23.40;27.60;;;;;;493339;240;1374;-60
2021/11/10 09:08:11;;;;;;;;;;;23.40;27.60;;;;;;493482;241;2203;-60
2021/11/10 09:10:12;;;;;;;;;;;23.30;27.70;;;;;;493311;240;2186;-60
2021/11/10 09:12:13;;;;;;;;;;;23.30;27.80;;;;;;493172;240;1170;-60
2021/11/10 09:14:15;;;;;;;;;;;23.30;27.80;;;;;;493148;240;1187;-61
2021/11/10 09:16:16;;;;;;;;;;;23.20;27.90;;;;;;493497;240;1275;-60
2021/11/10 09:18:17;;;;;;;;;;;23.20;27.90;;;;;;493657;240;1152;-60
2021/11/10 09:20:19;;;;;;;;;;;23.20;27.90;;;;;;493601;240;1044;-60
2021/11/10 09:22:20;;;;;;;;;;;23.20;28.00;;;;;;493676;240;1185;-61
2021/11/10 09:24:21;;;;;;;;;;;23.10;28.10;;;;;;493672;240;1078;-60
2021/11/10 09:26:23;;;;;;;;;;;23.10;28.20;;;;;;493502;240;1205;-60
2021/11/10 09:28:24;;;;;;;;;;;23.00;28.30;;;;;;493675;240;1014;-60
2021/11/10 09:30:27;;;;;;;;;;;23.00;28.30;;;;;;493691;240;2115;-62
2021/11/10 09:32:27;;;;;;;;;;;23.00;28.30;;;;;;493555;240;2246;-60
2021/11/10 09:34:28;;;;;;;;;;;23.20;28.20;;;;;;493492;240;1883;-60
2021/11/10 09:36:30;;;;;;;;;;;23.30;28.10;;;;;;493427;240;1330;-61
2021/11/10 09:38:31;;;;;;;;;;;23.30;28.10;;;;;;493654;240;1169;-61
2021/11/10 09:40:32;;;;;;;;;;;23.50;28.10;;;;;;493672;240;1201;-60
2021/11/10 09:42:34;;;;;;;;;;;23.40;28.10;;;;;;493602;240;1301;-60
2021/11/10 09:44:35;;;;;;;;;;;23.50;28.00;;;;;;493586;240;1055;-60
2021/11/10 09:46:36;;;;;;;;;;;23.50;28.20;;;;;;493503;240;1208;-61
2021/11/10 09:48:38;;;;;;;;;;;23.50;28.20;;;;;;493557;240;1022;-60
2021/11/10 09:50:42;;;;;;;;;;;23.50;28.20;;;;;;493552;240;2120;-60
2021/11/10 09:52:41;;;;;;;;;;;23.50;28.20;;;;;;493389;241;2037;-60
2021/11/10 09:54:42;;;;;;;;;;;23.60;28.20;;;;;;493633;240;1075;-60
2021/11/10 09:56:44;;;;;;;;;;;23.60;28.20;;;;;;493460;240;1125;-61
2021/11/10 09:58:47;;;;;;;;;;;23.50;28.30;;;;;;493148;240;1111;-60
2021/11/10 10:00:47;;;;;;;;;;;23.50;28.30;;;;;;493760;240;2248;-60
2021/11/10 10:02:49;;;;;;;;;;;23.60;28.30;;;;;;493978;240;1470;-60
2021/11/10 10:04:50;;;;;;;;;;;23.60;28.30;;;;;;493615;240;1035;-60
2021/11/10 10:06:51;;;;;;;;;;;23.50;28.40;;;;;;493355;240;1167;-60
2021/11/10 10:08:53;;;;;;;;;;;23.60;28.40;;;;;;492991;240;1071;-61
2021/11/10 10:10:54;;;;;;;;;;;23.60;28.40;;;;;;492917;240;2194;-60
2021/11/10 10:12:55;;;;;;;;;;;23.60;28.40;;;;;;494215;240;1033;-60
2021/11/10 10:14:57;;;;;;;;;;;23.60;28.40;;;;;;494114;240;839;-60
2021/11/10 10:16:58;;;;;;;;;;;23.60;28.40;;;;;;493668;240;1379;-60
2021/11/10 10:18:59;;;;;;;;;;;23.60;28.40;;;;;;494213;240;1215;-60
2021/11/10 10:21:00;;;;;;;;;;;23.70;28.40;;;;;;493786;240;1171;-60
2021/11/10 10:23:02;;;;;;;;;;;23.60;28.50;;;;;;494457;240;991;-61
2021/11/10 10:25:03;;;;;;;;;;;23.60;28.60;;;;;;493578;240;1104;-60
2021/11/10 10:27:04;;;;;;;;;;;23.60;28.50;;;;;;493710;240;1205;-60
2021/11/10 10:29:08;;;;;;;;;;;23.60;28.60;;;;;;493554;240;1052;-61
2021/11/10 10:31:07;;;;;;;;;;;23.60;28.60;;;;;;493402;240;2182;-60
2021/11/10 10:33:08;;;;;;;;;;;23.60;28.60;;;;;;493445;240;1190;-60
2021/11/10 10:35:10;;;;;;;;;;;23.60;28.70;;;;;;493412;240;1030;-60
2021/11/10 10:37:11;;;;;;;;;;;23.50;28.70;;;;;;493296;240;1305;-60
2021/11/10 10:39:12;;;;;;;;;;;23.60;28.70;;;;;;493380;240;978;-60
2021/11/10 10:41:14;;;;;;;;;;;23.70;28.60;;;;;;493414;240;1247;-60
2021/11/10 10:43:15;;;;;;;;;;;23.70;28.70;;;;;;494141;240;976;-60
2021/11/10 10:45:16;;;;;;;;;;;23.60;28.70;;;;;;493471;240;1033;-60
2021/11/10 10:47:18;;;;;;;;;;;23.70;28.60;;;;;;493740;240;1229;-60
2021/11/10 10:49:19;;;;;;;;;;;23.70;28.60;;;;;;493516;240;1085;-60
2021/11/10 10:51:20;;;;;;;;;;;23.80;28.60;;;;;;493440;240;2171;-60
2021/11/10 10:53:22;;;;;;;;;;;23.70;28.60;;;;;;493526;240;1258;-60
2021/11/10 10:55:23;;;;;;;;;;;23.80;28.60;;;;;;493460;240;1273;-60
2021/11/10 10:57:24;;;;;;;;;;;23.90;28.60;;;;;;493270;240;1217;-61
2021/11/10 10:59:26;;;;;;;;;;;24.00;28.50;;;;;;493201;240;1147;-60
2021/11/10 11:01:27;;;;;;;;;;;24.00;28.50;;;;;;493102;240;1287;-60
2021/11/10 11:03:28;;;;;;;;;;;24.00;28.60;;;;;;493134;240;1461;-60
2021/11/10 11:05:30;;;;;;;;;;;23.90;28.60;;;;;;493301;240;1056;-60
2021/11/10 11:07:31;;;;;;;;;;;23.90;28.70;;;;;;493360;240;1153;-60
2021/11/10 11:09:33;;;;;;;;;;;23.90;28.70;;;;;;493497;240;1098;-60
2021/11/10 11:11:39;;;;;;;;;;;23.90;28.70;;;;;;493354;240;2182;-61
2021/11/10 11:13:39;;;;;;;;;;;23.90;28.80;;;;;;493788;240;1321;-60
2021/11/10 11:15:48;;;;;;;;;;;23.90;28.70;;;;;;493451;240;1102;-61
2021/11/10 11:17:43;;;;;;;;;;;23.90;28.80;;;;;;492810;241;2035;-60
2021/11/10 11:19:43;;;;;;;;;;;23.90;28.90;;;;;;493329;240;2422;-61
2021/11/10 11:21:45;;;;;;;;;;;23.90;28.90;;;;;;493341;240;1185;-61
2021/11/10 11:23:46;;;;;;;;;;;23.80;28.90;;;;;;493547;240;1040;-61
2021/11/10 11:25:47;;;;;;;;;;;23.80;28.90;;;;;;493526;240;1345;-61
2021/11/10 11:27:49;;;;;;;;;;;23.90;28.90;;;;;;493593;240;1070;-60
2021/11/10 11:29:50;;;;;;;;;;;23.80;29.00;;;;;;493661;240;1060;-61
2021/11/10 11:31:51;;;;;;;;;;;23.80;29.00;;;;;;493602;240;2185;-60
2021/11/10 11:33:53;;;;;;;;;;;23.80;29.10;;;;;;493809;240;1051;-60
2021/11/10 11:35:54;;;;;;;;;;;23.90;29.00;;;;;;493488;240;1368;-61
2021/11/10 11:37:55;;;;;;;;;;;23.90;29.10;;;;;;493682;240;1153;-60
2021/11/10 11:39:57;;;;;;;;;;;23.80;29.10;;;;;;493781;240;1035;-60
2021/11/10 11:41:58;;;;;;;;;;;23.80;29.10;;;;;;493534;240;1243;-60
2021/11/10 11:44:00;;;;;;;;;;;23.90;29.10;;;;;;493410;240;1034;-60
2021/11/10 11:46:01;;;;;;;;;;;23.80;29.10;;;;;;494181;240;1126;-60
2021/11/10 11:48:02;;;;;;;;;;;23.80;29.20;;;;;;494351;240;1426;-61
2021/11/10 11:50:04;;;;;;;;;;;23.90;29.20;;;;;;493841;240;1027;-60
2021/11/10 11:52:05;;;;;;;;;;;23.90;29.10;;;;;;493470;240;2167;-60
2021/11/10 11:54:07;;;;;;;;;;;23.90;29.10;;;;;;493480;240;1083;-60
2021/11/10 11:56:08;;;;;;;;;;;23.90;29.20;;;;;;493565;240;1308;-61